Terminal Aerodrome Forecast
Issued by NWS

Home | Current Version | Previous Version | Text Only | Print | Product List | Glossary On
Versions: 1 2 3 4 5 6 7 8 9 10 11 12 13 14
000
FTUS46 KSEW 180500
TAFPAE
TAF
KPAE 180521Z 1806/1906 00000KT P6SM -SHRA FEW025 BKN060 OVC100
     FM181200 VRB03KT P6SM -SHRA BKN015 OVC050
     FM181500 21004KT 5SM -SHRA BR BKN007 OVC015
     FM182000 22006KT P6SM BKN020 OVC050
     FM182300 VRB05KT P6SM SCT030 OVC060=

USA.gov is the U.S. government's official web portal to all federal, state and local government web resources and services.